createdAt,value
2023-09-06T00:02:16.286Z,21.68
2023-09-06T00:04:38.215Z,21.66
2023-09-06T00:07:01.184Z,21.62
2023-09-06T00:09:22.934Z,21.61
2023-09-06T00:11:44.898Z,21.55
2023-09-06T00:14:06.626Z,21.47
2023-09-06T00:16:28.284Z,21.44
2023-09-06T00:18:49.978Z,21.43
2023-09-06T00:21:11.752Z,21.38
2023-09-06T00:23:33.869Z,21.33
2023-09-06T00:25:56.496Z,21.32
2023-09-06T00:28:20.627Z,21.30
2023-09-06T00:30:46.030Z,21.28
2023-09-06T00:33:08.859Z,21.27
2023-09-06T00:35:30.689Z,21.27
2023-09-06T00:37:54.256Z,21.23
2023-09-06T00:40:19.796Z,21.20
2023-09-06T00:42:41.483Z,21.18
2023-09-06T00:45:03.921Z,21.18
2023-09-06T00:47:25.960Z,21.18
2023-09-06T00:49:48.085Z,21.19
2023-09-06T00:52:11.895Z,21.16
2023-09-06T00:54:33.736Z,21.16
2023-09-06T00:56:55.404Z,21.13
2023-09-06T00:59:24.069Z,21.10
2023-09-06T01:01:45.925Z,21.04
2023-09-06T01:04:07.778Z,20.97
2023-09-06T01:06:35.444Z,20.87
2023-09-06T01:09:00.257Z,20.78
2023-09-06T01:11:24.510Z,20.70
2023-09-06T01:14:04.654Z,20.65
2023-09-06T01:16:47.158Z,20.57
2023-09-06T01:19:14.145Z,20.50
2023-09-06T01:22:19.118Z,20.47
2023-09-06T01:24:40.964Z,20.42
2023-09-06T01:27:05.976Z,20.36
2023-09-06T01:29:30.561Z,20.34
2023-09-06T01:31:53.246Z,20.31
2023-09-06T01:34:15.114Z,20.26
2023-09-06T01:36:37.582Z,20.25
2023-09-06T01:38:59.212Z,20.22
2023-09-06T01:41:21.010Z,20.21
2023-09-06T01:43:42.764Z,20.18
2023-09-06T01:46:04.606Z,20.14
2023-09-06T01:48:26.624Z,20.13
2023-09-06T01:50:49.344Z,20.10
2023-09-06T01:53:10.999Z,20.07
2023-09-06T01:55:32.633Z,20.04
2023-09-06T01:57:55.327Z,20.01
2023-09-06T02:00:20.662Z,19.99
2023-09-06T02:02:42.366Z,19.97
2023-09-06T02:05:04.350Z,19.95
2023-09-06T02:07:27.763Z,19.95
2023-09-06T02:09:50.016Z,19.96
2023-09-06T02:12:12.115Z,19.94
2023-09-06T02:14:35.433Z,19.93
2023-09-06T02:16:58.260Z,19.91
2023-09-06T02:21:43.613Z,19.85
2023-09-06T02:24:05.755Z,19.82
2023-09-06T02:26:27.409Z,19.80
2023-09-06T02:28:51.781Z,19.78
2023-09-06T02:31:13.688Z,19.75
2023-09-06T02:33:35.451Z,19.71
2023-09-06T02:35:57.156Z,19.67
2023-09-06T02:38:18.890Z,19.64
2023-09-06T02:40:44.094Z,19.62
2023-09-06T02:43:06.220Z,19.60
2023-09-06T02:45:37.943Z,19.58
2023-09-06T02:47:59.743Z,19.57
2023-09-06T02:50:25.774Z,19.55
2023-09-06T02:52:47.672Z,19.53
2023-09-06T02:55:12.001Z,19.52
2023-09-06T02:57:35.565Z,19.49
2023-09-06T02:59:58.028Z,19.49
2023-09-06T03:02:20.702Z,19.44
2023-09-06T03:04:42.865Z,19.42
2023-09-06T03:07:11.230Z,19.40
2023-09-06T03:09:33.390Z,19.36
2023-09-06T03:11:55.704Z,19.32
2023-09-06T03:14:18.819Z,19.28
2023-09-06T03:16:40.977Z,19.21
2023-09-06T03:19:11.989Z,19.15
2023-09-06T03:21:35.959Z,19.05
2023-09-06T03:24:00.551Z,18.99
2023-09-06T03:26:24.027Z,18.96
2023-09-06T03:28:45.806Z,18.89
2023-09-06T03:31:14.372Z,18.87
2023-09-06T03:33:37.535Z,18.84
2023-09-06T03:35:59.292Z,18.80
2023-09-06T03:38:26.413Z,18.76
2023-09-06T03:40:50.664Z,18.74
2023-09-06T03:43:16.704Z,18.71
2023-09-06T03:45:38.436Z,18.68
2023-09-06T03:48:01.877Z,18.65
2023-09-06T03:50:25.077Z,18.63
2023-09-06T03:52:46.996Z,18.59
2023-09-06T03:55:11.062Z,18.55
2023-09-06T03:57:32.724Z,18.51
2023-09-06T03:59:54.451Z,18.48
2023-09-06T04:02:16.446Z,18.45
2023-09-06T04:04:39.260Z,18.43
2023-09-06T04:07:01.852Z,18.40
2023-09-06T04:09:29.264Z,18.39
2023-09-06T04:11:50.956Z,18.34
2023-09-06T04:14:12.651Z,18.31
2023-09-06T04:16:38.254Z,18.28
2023-09-06T04:19:02.255Z,18.26
2023-09-06T04:21:23.989Z,18.25
2023-09-06T04:23:46.054Z,18.23
2023-09-06T04:26:11.415Z,18.24
2023-09-06T04:28:33.333Z,18.22
2023-09-06T04:30:55.953Z,18.23
2023-09-06T04:33:20.116Z,18.21
2023-09-06T04:35:50.569Z,18.21
2023-09-06T04:38:17.791Z,18.19
2023-09-06T04:40:45.655Z,18.17
2023-09-06T04:43:10.441Z,18.16
2023-09-06T04:45:33.802Z,18.15
2023-09-06T04:47:57.607Z,18.14
2023-09-06T04:50:19.663Z,18.12
2023-09-06T04:52:48.382Z,18.11
2023-09-06T04:55:13.292Z,18.09
2023-09-06T04:57:38.007Z,18.08
2023-09-06T04:59:59.961Z,18.08
2023-09-06T05:02:21.646Z,18.07
2023-09-06T05:04:45.133Z,18.06
2023-09-06T05:07:07.069Z,18.05
2023-09-06T05:09:29.042Z,18.06
2023-09-06T05:11:50.847Z,18.04
2023-09-06T05:14:12.522Z,18.06
2023-09-06T05:16:35.607Z,18.06
2023-09-06T05:18:57.438Z,18.06
2023-09-06T05:21:22.974Z,18.06
2023-09-06T05:23:44.829Z,18.07
2023-09-06T05:26:07.395Z,18.09
2023-09-06T05:28:34.241Z,18.10
2023-09-06T05:30:58.294Z,18.11
2023-09-06T05:33:20.199Z,18.14
2023-09-06T05:35:43.395Z,18.17
2023-09-06T05:38:06.137Z,18.20
2023-09-06T05:40:30.901Z,18.22
2023-09-06T05:42:54.170Z,18.27
2023-09-06T05:45:20.849Z,18.33
2023-09-06T05:47:42.643Z,18.38
2023-09-06T05:50:07.591Z,18.44
2023-09-06T05:52:30.002Z,18.50
2023-09-06T05:54:55.792Z,18.54
2023-09-06T05:57:19.608Z,18.59
2023-09-06T05:59:42.202Z,18.61
2023-09-06T06:02:04.252Z,18.67
2023-09-06T06:04:26.681Z,18.74
2023-09-06T06:06:48.698Z,18.81
2023-09-06T06:09:12.635Z,18.89
2023-09-06T06:11:34.263Z,18.96
2023-09-06T06:14:08.102Z,19.01
2023-09-06T06:16:32.148Z,19.11
2023-09-06T06:18:53.934Z,19.16
2023-09-06T06:21:15.835Z,19.25
2023-09-06T06:23:37.576Z,19.34
2023-09-06T06:25:59.360Z,19.42
2023-09-06T06:28:21.187Z,19.49
2023-09-06T06:30:43.900Z,19.59
2023-09-06T06:33:08.589Z,19.65
2023-09-06T06:35:30.706Z,19.75
2023-09-06T06:37:52.415Z,19.91
2023-09-06T06:40:14.157Z,20.12
2023-09-06T06:42:36.461Z,20.33
2023-09-06T06:45:03.377Z,20.59
2023-09-06T06:47:25.141Z,20.84
2023-09-06T06:49:46.826Z,21.09
2023-09-06T06:52:08.624Z,21.25
2023-09-06T06:54:30.386Z,21.42
2023-09-06T06:56:52.581Z,21.59
2023-09-06T06:59:14.772Z,21.75
2023-09-06T07:01:37.665Z,21.89
2023-09-06T07:03:59.852Z,21.99
2023-09-06T07:06:26.326Z,22.08
2023-09-06T07:08:48.143Z,22.17
2023-09-06T07:11:11.597Z,22.28
2023-09-06T07:13:35.817Z,22.37
2023-09-06T07:15:58.668Z,22.46
2023-09-06T07:18:20.386Z,22.59
2023-09-06T07:20:43.464Z,22.69
2023-09-06T07:23:05.407Z,22.77
2023-09-06T07:25:29.082Z,22.90
2023-09-06T07:27:50.807Z,23.02
2023-09-06T07:30:12.542Z,23.14
2023-09-06T07:32:34.387Z,23.25
2023-09-06T07:34:56.100Z,23.37
2023-09-06T07:37:17.833Z,23.47
2023-09-06T07:39:39.487Z,23.59
2023-09-06T07:42:01.163Z,23.67
2023-09-06T07:44:23.172Z,23.81
2023-09-06T07:46:49.555Z,23.93
2023-09-06T07:49:11.711Z,24.08
2023-09-06T07:51:33.679Z,24.19
2023-09-06T07:53:56.730Z,24.37
2023-09-06T07:56:18.657Z,24.50
2023-09-06T07:58:40.406Z,24.65
2023-09-06T08:01:17.217Z,24.76
2023-09-06T08:03:41.132Z,24.85
2023-09-06T08:06:05.380Z,24.93
2023-09-06T08:08:27.390Z,24.99
2023-09-06T08:10:49.398Z,25.09
2023-09-06T08:13:11.660Z,25.17
2023-09-06T08:15:35.081Z,25.29
2023-09-06T08:17:56.799Z,25.34
2023-09-06T08:20:19.416Z,25.34
2023-09-06T08:22:45.213Z,25.42
2023-09-06T08:25:07.283Z,25.52
2023-09-06T08:27:29.073Z,25.60
2023-09-06T08:29:50.981Z,25.67
2023-09-06T08:32:13.336Z,25.74
2023-09-06T08:34:35.489Z,25.88
2023-09-06T08:36:57.957Z,26.01
2023-09-06T08:39:19.808Z,26.15
2023-09-06T08:41:44.567Z,26.25
2023-09-06T08:44:12.458Z,26.32
2023-09-06T08:46:42.920Z,26.38
2023-09-06T08:49:05.782Z,26.50
2023-09-06T08:51:36.938Z,26.57
2023-09-06T08:54:00.894Z,26.67
2023-09-06T08:56:22.822Z,26.74
2023-09-06T08:58:45.378Z,26.74
2023-09-06T09:01:07.389Z,26.81
2023-09-06T09:03:29.869Z,26.85
2023-09-06T09:05:52.234Z,26.88
2023-09-06T09:08:13.967Z,26.96
2023-09-06T09:10:35.931Z,27.01
2023-09-06T09:12:59.650Z,27.13
2023-09-06T09:15:28.045Z,27.20
2023-09-06T09:18:00.048Z,27.25
2023-09-06T09:20:22.820Z,27.35
2023-09-06T09:22:46.647Z,27.42
2023-09-06T09:25:21.761Z,27.56
2023-09-06T09:27:46.680Z,27.71
2023-09-06T09:30:09.767Z,27.84
2023-09-06T09:32:33.338Z,27.96
2023-09-06T09:34:55.848Z,28.07
2023-09-06T09:37:17.576Z,28.16
2023-09-06T09:39:39.614Z,28.29
2023-09-06T09:42:02.050Z,28.41
2023-09-06T09:44:23.785Z,28.51
2023-09-06T09:46:47.317Z,28.59
2023-09-06T09:49:11.557Z,28.67
2023-09-06T09:51:35.674Z,28.75
2023-09-06T09:53:57.937Z,28.81
2023-09-06T09:56:23.605Z,28.89
2023-09-06T09:58:48.016Z,28.92
2023-09-06T10:01:10.098Z,28.95
2023-09-06T10:03:35.618Z,28.94
2023-09-06T10:05:59.486Z,28.97
2023-09-06T10:08:23.320Z,28.95
2023-09-06T10:10:45.957Z,28.95
2023-09-06T10:13:11.277Z,29.03
2023-09-06T10:15:34.536Z,29.16
2023-09-06T10:17:58.734Z,29.22
2023-09-06T10:20:24.578Z,29.22
2023-09-06T10:22:47.636Z,29.20
2023-09-06T10:25:11.362Z,29.27
2023-09-06T10:27:34.181Z,29.31
2023-09-06T10:30:04.750Z,29.33
2023-09-06T10:32:42.839Z,29.40
2023-09-06T10:35:25.184Z,29.50
2023-09-06T10:38:17.276Z,29.58
2023-09-06T10:41:02.019Z,29.67
2023-09-06T10:43:30.033Z,29.75
2023-09-06T10:46:19.502Z,29.80
2023-09-06T10:48:41.602Z,29.86
2023-09-06T10:51:14.266Z,29.98
2023-09-06T10:53:40.403Z,30.05
2023-09-06T10:56:04.067Z,30.20
2023-09-06T10:58:26.002Z,30.31
2023-09-06T11:01:11.081Z,30.42
2023-09-06T11:03:33.273Z,30.47
2023-09-06T11:05:57.808Z,30.48
2023-09-06T11:08:26.726Z,30.52
2023-09-06T11:10:48.780Z,30.58
2023-09-06T11:13:12.997Z,30.59
2023-09-06T11:15:39.113Z,30.60
2023-09-06T11:18:01.144Z,30.63
2023-09-06T11:20:23.500Z,30.75
2023-09-06T11:22:58.051Z,30.84
2023-09-06T11:25:22.985Z,30.86
2023-09-06T11:27:46.524Z,30.88
2023-09-06T11:30:12.202Z,30.93
2023-09-06T11:32:34.539Z,31.00
2023-09-06T11:34:56.766Z,31.05
2023-09-06T11:37:20.728Z,31.07
2023-09-06T11:39:47.003Z,31.09
2023-09-06T11:42:16.660Z,31.06
2023-09-06T11:44:44.363Z,31.03
2023-09-06T11:47:08.181Z,31.04
2023-09-06T11:49:31.322Z,31.09
2023-09-06T11:51:55.244Z,31.07
2023-09-06T11:54:17.495Z,31.11
2023-09-06T11:56:44.017Z,31.14
2023-09-06T11:59:13.724Z,31.21
2023-09-06T12:01:41.484Z,31.26
2023-09-06T12:04:04.158Z,31.27
2023-09-06T12:06:29.419Z,31.30
2023-09-06T12:08:52.367Z,31.36
2023-09-06T12:11:22.991Z,31.40
2023-09-06T12:13:44.773Z,31.44
2023-09-06T12:16:12.576Z,31.50
2023-09-06T12:18:36.873Z,31.56
2023-09-06T12:21:00.139Z,31.66
2023-09-06T12:23:22.320Z,31.75
2023-09-06T12:25:44.028Z,31.76
2023-09-06T12:28:06.059Z,31.81
2023-09-06T12:30:28.667Z,31.83
2023-09-06T12:32:50.704Z,31.90
2023-09-06T12:35:16.425Z,31.96
2023-09-06T12:37:40.658Z,32.01
2023-09-06T12:40:11.728Z,32.01
2023-09-06T12:42:33.610Z,32.04
2023-09-06T12:44:55.567Z,32.08
2023-09-06T12:47:20.065Z,32.13
2023-09-06T12:49:41.728Z,32.17
2023-09-06T12:52:04.875Z,32.22
2023-09-06T12:54:26.533Z,32.29
2023-09-06T12:56:48.156Z,32.36
2023-09-06T12:59:10.260Z,32.38
2023-09-06T13:01:31.971Z,32.40
2023-09-06T13:03:54.116Z,32.41
2023-09-06T13:06:16.826Z,32.40
2023-09-06T13:08:38.719Z,32.41
2023-09-06T13:11:00.781Z,32.47
2023-09-06T13:13:22.513Z,32.51
2023-09-06T13:15:44.214Z,32.51
2023-09-06T13:18:05.996Z,32.46
2023-09-06T13:20:27.783Z,32.48
2023-09-06T13:22:49.511Z,32.53
2023-09-06T13:25:12.769Z,32.60
2023-09-06T13:27:36.134Z,32.66
2023-09-06T13:29:58.412Z,32.66
2023-09-06T13:32:20.184Z,32.66
2023-09-06T13:34:42.255Z,32.61
2023-09-06T13:37:05.585Z,32.62
2023-09-06T13:39:28.172Z,32.66
2023-09-06T13:41:50.006Z,32.65
2023-09-06T13:44:11.746Z,32.66
2023-09-06T13:46:34.648Z,32.69
2023-09-06T13:48:59.557Z,32.71
2023-09-06T13:51:21.475Z,32.70
2023-09-06T13:53:44.653Z,32.75
2023-09-06T13:56:06.485Z,32.80
2023-09-06T13:58:32.857Z,32.87
2023-09-06T14:00:57.020Z,32.93
2023-09-06T14:03:18.936Z,32.97
2023-09-06T14:05:42.667Z,32.96
2023-09-06T14:08:04.882Z,32.98
2023-09-06T14:10:26.667Z,33.04
2023-09-06T14:12:48.422Z,33.07
2023-09-06T14:15:10.942Z,33.07
2023-09-06T14:17:32.795Z,33.04
2023-09-06T14:19:54.643Z,33.08
2023-09-06T14:22:16.479Z,33.10
2023-09-06T14:24:39.127Z,33.08
2023-09-06T14:27:00.959Z,33.11
2023-09-06T14:29:22.723Z,33.19
2023-09-06T14:31:44.550Z,33.24
2023-09-06T14:34:06.370Z,33.24
2023-09-06T14:36:28.130Z,33.23
2023-09-06T14:38:49.944Z,33.21
2023-09-06T14:41:11.663Z,33.23
2023-09-06T14:43:33.667Z,33.26
2023-09-06T14:46:07.231Z,33.28
2023-09-06T14:48:30.173Z,33.29
2023-09-06T14:50:58.963Z,33.30
2023-09-06T14:53:20.815Z,33.32
2023-09-06T14:55:42.525Z,33.31
2023-09-06T14:58:05.259Z,33.29
2023-09-06T15:00:27.518Z,33.31
2023-09-06T15:02:51.204Z,33.35
2023-09-06T15:05:14.964Z,33.36
2023-09-06T15:07:36.766Z,33.36
2023-09-06T15:09:59.110Z,33.37
2023-09-06T15:12:20.876Z,33.38
2023-09-06T15:14:42.719Z,33.38
2023-09-06T15:17:04.915Z,33.38
2023-09-06T15:19:26.652Z,33.38
2023-09-06T15:21:48.424Z,33.35
2023-09-06T15:24:10.629Z,33.28
2023-09-06T15:26:33.066Z,33.27
2023-09-06T15:28:54.771Z,33.23
2023-09-06T15:31:21.242Z,33.19
2023-09-06T15:33:44.038Z,33.12
2023-09-06T15:36:10.044Z,33.06
2023-09-06T15:38:32.043Z,33.00
2023-09-06T15:40:53.865Z,32.95
2023-09-06T15:43:15.635Z,32.93
2023-09-06T15:45:37.893Z,32.90
2023-09-06T15:48:00.487Z,32.89
2023-09-06T15:50:25.089Z,32.85
2023-09-06T15:52:48.552Z,32.82
2023-09-06T15:55:10.294Z,32.77
2023-09-06T15:57:31.909Z,32.73
2023-09-06T15:59:53.615Z,32.69
2023-09-06T16:02:15.831Z,32.66
2023-09-06T16:04:39.017Z,32.62
2023-09-06T16:07:00.811Z,32.58
2023-09-06T16:09:22.510Z,32.56
2023-09-06T16:11:44.191Z,32.55
2023-09-06T16:14:06.796Z,32.53
2023-09-06T16:16:29.271Z,32.52
2023-09-06T16:18:52.745Z,32.46
2023-09-06T16:21:14.568Z,32.42
2023-09-06T16:23:36.303Z,32.38
2023-09-06T16:25:58.032Z,32.35
2023-09-06T16:28:19.648Z,32.32
2023-09-06T16:30:42.973Z,32.29
2023-09-06T16:33:06.937Z,32.29
2023-09-06T16:35:29.809Z,32.27
2023-09-06T16:37:51.930Z,32.24
2023-09-06T16:40:14.990Z,32.20
2023-09-06T16:42:37.073Z,32.16
2023-09-06T16:44:58.726Z,32.16
2023-09-06T16:47:20.490Z,32.12
2023-09-06T16:49:43.709Z,32.04
2023-09-06T16:52:08.868Z,31.96
2023-09-06T16:54:30.689Z,31.90
2023-09-06T16:56:52.423Z,31.84
2023-09-06T16:59:16.113Z,31.77
2023-09-06T17:01:37.917Z,31.69
2023-09-06T17:03:59.956Z,31.64
2023-09-06T17:06:23.722Z,31.60
2023-09-06T17:08:45.444Z,31.54
2023-09-06T17:11:07.388Z,31.46
2023-09-06T17:13:29.488Z,31.37
2023-09-06T17:15:51.375Z,31.27
2023-09-06T17:18:14.612Z,31.19
2023-09-06T17:20:36.424Z,31.08
2023-09-06T17:22:59.215Z,31.02
2023-09-06T17:25:22.090Z,30.96
2023-09-06T17:27:44.189Z,30.87
2023-09-06T17:30:20.417Z,30.79
2023-09-06T17:33:04.539Z,30.65
2023-09-06T17:35:27.645Z,30.58
2023-09-06T17:37:49.370Z,30.52
2023-09-06T17:40:12.074Z,30.46
2023-09-06T17:42:33.767Z,30.38
2023-09-06T17:44:59.950Z,30.26
2023-09-06T17:47:21.726Z,30.16
2023-09-06T17:49:43.760Z,30.06
2023-09-06T17:52:06.954Z,29.95
2023-09-06T17:54:30.216Z,29.83
2023-09-06T17:56:52.463Z,29.70
2023-09-06T17:59:14.676Z,29.55
2023-09-06T18:01:37.237Z,29.35
2023-09-06T18:03:59.950Z,29.18
2023-09-06T18:06:28.572Z,29.01
2023-09-06T18:08:55.235Z,28.87
2023-09-06T18:11:18.164Z,28.69
2023-09-06T18:13:42.468Z,28.54
2023-09-06T18:16:06.927Z,28.38
2023-09-06T18:18:29.061Z,28.27
2023-09-06T18:20:56.171Z,28.14
2023-09-06T18:23:20.112Z,28.02
2023-09-06T18:25:42.214Z,27.93
2023-09-06T18:28:09.362Z,27.82
2023-09-06T18:30:31.449Z,27.72
2023-09-06T18:32:53.247Z,27.64
2023-09-06T18:35:17.340Z,27.56
2023-09-06T18:37:39.765Z,27.48
2023-09-06T18:40:16.597Z,27.40
2023-09-06T18:42:38.385Z,27.32
2023-09-06T18:45:00.292Z,27.25
2023-09-06T18:47:21.984Z,27.16
2023-09-06T18:49:45.230Z,27.08
2023-09-06T18:52:08.726Z,27.00
2023-09-06T18:54:30.475Z,26.90
2023-09-06T18:56:52.300Z,26.84
2023-09-06T18:59:14.136Z,26.77
2023-09-06T19:01:35.862Z,26.68
2023-09-06T19:03:57.741Z,26.61
2023-09-06T19:06:19.462Z,26.55
2023-09-06T19:08:42.166Z,26.45
2023-09-06T19:11:05.592Z,26.37
2023-09-06T19:13:27.679Z,26.31
2023-09-06T19:15:49.643Z,26.24
2023-09-06T19:18:11.442Z,26.15
2023-09-06T19:20:34.121Z,26.11
2023-09-06T19:22:56.108Z,26.05
2023-09-06T19:25:18.042Z,26.00
2023-09-06T19:27:40.863Z,25.94
2023-09-06T19:30:03.860Z,25.90
2023-09-06T19:32:25.662Z,25.86
2023-09-06T19:34:49.467Z,25.83
2023-09-06T19:37:11.149Z,25.79
2023-09-06T19:39:33.796Z,25.74
2023-09-06T19:41:57.465Z,25.69
2023-09-06T19:44:19.264Z,25.62
2023-09-06T19:46:41.082Z,25.55
2023-09-06T19:49:06.819Z,25.48
2023-09-06T19:51:30.874Z,25.40
2023-09-06T19:53:52.608Z,25.31
2023-09-06T19:56:18.140Z,25.24
2023-09-06T19:58:39.831Z,25.16
2023-09-06T20:01:01.521Z,25.07
2023-09-06T20:03:23.544Z,24.99
2023-09-06T20:05:47.768Z,24.90
2023-09-06T20:08:09.675Z,24.82
2023-09-06T20:10:31.426Z,24.74
2023-09-06T20:12:53.034Z,24.68
2023-09-06T20:15:16.056Z,24.60
2023-09-06T20:17:38.256Z,24.55
2023-09-06T20:20:00.500Z,24.49
2023-09-06T20:22:22.464Z,24.44
2023-09-06T20:24:44.077Z,24.40
2023-09-06T20:27:05.806Z,24.38
2023-09-06T20:29:29.180Z,24.38
2023-09-06T20:31:50.858Z,24.35
2023-09-06T20:34:13.419Z,24.33
2023-09-06T20:36:35.167Z,24.31
2023-09-06T20:38:56.936Z,24.27
2023-09-06T20:41:18.742Z,24.22
2023-09-06T20:43:40.466Z,24.18
2023-09-06T20:46:02.952Z,24.14
2023-09-06T20:48:27.100Z,24.10
2023-09-06T20:51:01.721Z,24.07
2023-09-06T20:53:23.473Z,24.04
2023-09-06T20:55:45.167Z,24.02
2023-09-06T20:58:06.782Z,24.01
2023-09-06T21:00:28.765Z,24.00
2023-09-06T21:02:51.992Z,23.96
2023-09-06T21:05:13.756Z,23.92
2023-09-06T21:07:35.435Z,23.90
2023-09-06T21:09:57.687Z,23.86
2023-09-06T21:12:19.440Z,23.82
2023-09-06T21:14:41.243Z,23.77
2023-09-06T21:17:02.982Z,23.71
2023-09-06T21:19:25.049Z,23.68
2023-09-06T21:21:46.774Z,23.63
2023-09-06T21:24:09.786Z,23.59
2023-09-06T21:26:31.578Z,23.55
2023-09-06T21:28:54.420Z,23.49
2023-09-06T21:31:16.182Z,23.45
2023-09-06T21:33:38.090Z,23.40
2023-09-06T21:36:00.227Z,23.33
2023-09-06T21:38:21.988Z,23.27
2023-09-06T21:40:45.833Z,23.21
2023-09-06T21:43:17.692Z,23.12
2023-09-06T21:45:41.267Z,23.06
2023-09-06T21:48:03.366Z,23.00
2023-09-06T21:50:25.198Z,22.94
2023-09-06T21:52:47.056Z,22.89
2023-09-06T21:55:10.585Z,22.82
2023-09-06T21:57:33.365Z,22.76
2023-09-06T21:59:55.083Z,22.70
2023-09-06T22:02:16.760Z,22.64
2023-09-06T22:04:57.407Z,22.58
2023-09-06T22:07:37.603Z,22.52
2023-09-06T22:10:18.523Z,22.48
2023-09-06T22:12:59.046Z,22.42
2023-09-06T22:15:21.072Z,22.37
2023-09-06T22:17:43.424Z,22.33
2023-09-06T22:20:06.714Z,22.29
2023-09-06T22:22:28.493Z,22.25
2023-09-06T22:24:50.251Z,22.18
2023-09-06T22:27:12.209Z,22.14
2023-09-06T22:29:34.618Z,22.09
2023-09-06T22:31:56.841Z,22.05
2023-09-06T22:34:20.778Z,22.00
2023-09-06T22:36:42.998Z,21.97
2023-09-06T22:39:06.382Z,21.94
2023-09-06T22:41:28.066Z,21.90
2023-09-06T22:43:49.864Z,21.86
2023-09-06T22:46:11.700Z,21.82
2023-09-06T22:48:53.309Z,21.78
2023-09-06T22:51:16.366Z,21.74
2023-09-06T22:53:38.809Z,21.68
2023-09-06T22:56:00.455Z,21.62
2023-09-06T22:58:22.284Z,21.55
2023-09-06T23:00:44.090Z,21.46
2023-09-06T23:03:05.871Z,21.45
2023-09-06T23:05:27.661Z,21.42
2023-09-06T23:07:49.699Z,21.41
2023-09-06T23:10:13.072Z,21.38
2023-09-06T23:12:34.920Z,21.37
2023-09-06T23:14:56.715Z,21.35
2023-09-06T23:17:23.788Z,21.33
2023-09-06T23:19:48.170Z,21.31
2023-09-06T23:22:13.535Z,21.30
2023-09-06T23:24:39.001Z,21.27
2023-09-06T23:27:00.939Z,21.24
2023-09-06T23:29:24.038Z,21.21
2023-09-06T23:31:54.609Z,21.19
2023-09-06T23:34:23.028Z,21.14
2023-09-06T23:36:44.840Z,21.11
2023-09-06T23:39:06.973Z,21.07
2023-09-06T23:41:28.970Z,21.03
2023-09-06T23:43:52.718Z,20.96
2023-09-06T23:46:14.716Z,20.89
2023-09-06T23:48:36.582Z,20.87
2023-09-06T23:50:58.797Z,20.82
2023-09-06T23:53:22.025Z,20.79
2023-09-06T23:55:43.912Z,20.72
2023-09-06T23:58:05.860Z,20.64
